Time;durP1;ratioP1;P1;durP2;ratioP2;P2;SDS_P1;SDS_P2;PMS_P1;PMS_P2;Temp;Humidity;BMP_temperature;BMP_pressure;BME280_temperature;BME280_humidity;BME280_pressure;Samples;Min_cycle;Max_cycle;Signal;HPM_P1;HPM_P2
2023/04/27 00:00:24;;;;;;;7.47;3.20;;;6.70;99.90;;;;;;5108632;28;20012;-38
2023/04/27 00:02:50;;;;;;;8.52;4.00;;;6.60;99.90;;;;;;5091733;28;20083;-38
2023/04/27 00:05:16;;;;;;;5.90;3.08;;;6.70;99.90;;;;;;5110422;28;20019;-38
2023/04/27 00:07:41;;;;;;;6.82;3.25;;;6.70;99.90;;;;;;5111682;27;20091;-38
2023/04/27 00:10:07;;;;;;;5.82;3.10;;;6.70;99.90;;;;;;5110104;28;20180;-38
2023/04/27 00:12:33;;;;;;;8.77;3.60;;;6.70;99.90;;;;;;5107547;28;20487;-38
2023/04/27 00:14:59;;;;;;;6.55;3.40;;;6.70;99.90;;;;;;5110432;28;20039;-39
2023/04/27 00:17:24;;;;;;;6.07;3.05;;;6.70;99.90;;;;;;5110085;28;20019;-38
2023/04/27 00:19:51;;;;;;;8.77;2.95;;;6.70;99.90;;;;;;5110090;28;20019;-38
2023/04/27 00:22:17;;;;;;;6.63;2.67;;;6.70;99.90;;;;;;5111805;27;20123;-38
2023/04/27 00:24:42;;;;;;;10.57;3.78;;;6.70;99.90;;;;;;5109888;28;20031;-38
2023/04/27 00:27:08;;;;;;;6.45;3.15;;;6.70;99.90;;;;;;5110060;28;20031;-38
2023/04/27 00:29:33;;;;;;;5.55;2.67;;;6.70;99.90;;;;;;5110990;27;20504;-38
2023/04/27 00:31:59;;;;;;;7.57;3.42;;;6.70;99.90;;;;;;5110071;28;20110;-38
2023/04/27 00:34:24;;;;;;;6.45;2.65;;;6.60;99.90;;;;;;5111190;27;20469;-38
2023/04/27 00:36:50;;;;;;;5.65;3.20;;;6.70;99.90;;;;;;5109851;28;20531;-38
2023/04/27 00:39:15;;;;;;;7.25;3.13;;;6.60;99.90;;;;;;5109308;28;20398;-38
2023/04/27 00:41:41;;;;;;;10.13;3.55;;;6.60;99.90;;;;;;5090937;28;20458;-38
2023/04/27 00:44:07;;;;;;;8.93;3.38;;;6.60;99.90;;;;;;5110093;28;20054;-38
2023/04/27 00:46:33;;;;;;;7.60;3.45;;;6.60;99.90;;;;;;5109572;28;20380;-38
2023/04/27 00:49:00;;;;;;;6.78;3.17;;;6.50;99.90;;;;;;5109198;28;20031;-38
2023/04/27 00:51:28;;;;;;;8.77;3.63;;;6.50;99.90;;;;;;5090416;28;20161;-38
2023/04/27 00:53:56;;;;;;;6.18;3.25;;;6.50;99.90;;;;;;5106347;28;20019;-38
2023/04/27 00:56:22;;;;;;;4.78;2.95;;;6.50;99.90;;;;;;5110953;27;20031;-38
2023/04/27 00:58:48;;;;;;;3.97;2.90;;;6.50;99.90;;;;;;5108868;28;20038;-38
2023/04/27 01:01:13;;;;;;;6.03;3.20;;;6.60;99.90;;;;;;5109209;28;20012;-38
2023/04/27 01:03:39;;;;;;;6.22;2.95;;;6.50;99.90;;;;;;5109157;27;20069;-38
2023/04/27 01:06:05;;;;;;;10.55;3.78;;;6.50;99.90;;;;;;5109567;28;20380;-38
2023/04/27 01:08:30;;;;;;;5.75;3.25;;;6.40;99.90;;;;;;5109322;28;20583;-38
2023/04/27 01:10:56;;;;;;;7.55;3.40;;;6.40;99.90;;;;;;5108703;28;20034;-38
2023/04/27 01:13:21;;;;;;;8.57;3.88;;;6.40;99.90;;;;;;5108826;27;20032;-38
2023/04/27 01:15:47;;;;;;;6.47;3.30;;;6.40;99.90;;;;;;5109551;28;20032;-38
2023/04/27 01:18:41;;;;;;;6.72;3.28;;;6.40;99.90;;;;;;5109782;28;20058;-38
2023/04/27 01:21:06;;;;;;;8.85;4.10;;;6.40;99.90;;;;;;5108641;28;20055;-38
2023/04/27 01:23:32;;;;;;;8.70;3.50;;;6.30;99.90;;;;;;5109379;28;20055;-38
2023/04/27 01:25:57;;;;;;;5.07;3.20;;;6.40;99.90;;;;;;5109900;28;20572;-38
2023/04/27 01:28:23;;;;;;;4.82;3.58;;;6.40;99.90;;;;;;5109860;27;20020;-38
2023/04/27 01:30:48;;;;;;;6.28;3.42;;;6.30;99.90;;;;;;5109230;28;20124;-38
2023/04/27 01:33:14;;;;;;;6.18;3.58;;;6.30;99.90;;;;;;5090851;28;20122;-38
2023/04/27 01:35:39;;;;;;;11.23;4.50;;;6.30;99.90;;;;;;5108844;28;20288;-38
2023/04/27 01:38:05;;;;;;;11.45;3.97;;;6.30;99.90;;;;;;5108624;28;20031;-38
2023/04/27 01:40:30;;;;;;;8.68;3.75;;;6.30;99.90;;;;;;5108653;28;20031;-38
2023/04/27 01:42:56;;;;;;;10.55;4.38;;;6.20;99.90;;;;;;5108527;28;20019;-39
2023/04/27 01:45:21;;;;;;;11.95;5.07;;;6.20;99.90;;;;;;5108594;28;20107;-38
2023/04/27 01:47:50;;;;;;;8.63;4.70;;;6.20;99.90;;;;;;5108861;28;20099;-38
2023/04/27 01:50:16;;;;;;;6.82;3.90;;;6.30;99.90;;;;;;5106201;28;20261;-38
2023/04/27 01:58:28;;;;;;;9.23;4.28;;;6.30;99.90;;;;;;5108075;27;20039;-38
2023/04/27 02:00:54;;;;;;;11.02;5.15;;;6.30;99.90;;;;;;5107804;28;20019;-38
2023/04/27 02:03:20;;;;;;;17.42;4.80;;;6.30;99.90;;;;;;5108320;28;20068;-38
2023/04/27 02:05:46;;;;;;;9.18;4.55;;;6.20;99.90;;;;;;5108303;28;20259;-38
2023/04/27 02:08:12;;;;;;;9.65;4.50;;;6.20;99.90;;;;;;5089582;28;20008;-38
2023/04/27 02:10:38;;;;;;;12.35;4.30;;;6.10;99.90;;;;;;5108144;28;20625;-38
2023/04/27 02:13:03;;;;;;;12.85;4.38;;;6.20;99.90;;;;;;5107964;28;20035;-38
2023/04/27 02:15:29;;;;;;;8.25;4.35;;;6.10;99.90;;;;;;5107917;28;20758;-38
2023/04/27 02:17:54;;;;;;;13.23;5.43;;;6.10;99.90;;;;;;5107858;28;20089;-38
2023/04/27 02:20:20;;;;;;;7.82;4.35;;;6.10;99.90;;;;;;5089025;28;20066;-38
2023/04/27 02:22:45;;;;;;;9.30;4.90;;;6.10;99.90;;;;;;5106817;28;20350;-38
2023/04/27 02:25:11;;;;;;;8.90;4.45;;;6.10;99.90;;;;;;5107730;28;20062;-38
2023/04/27 02:27:38;;;;;;;10.05;4.50;;;6.00;99.90;;;;;;5107452;28;20027;-38
2023/04/27 02:30:08;;;;;;;8.27;4.80;;;6.00;99.90;;;;;;5107880;28;20027;-38
2023/04/27 02:32:34;;;;;;;8.90;4.95;;;6.00;99.90;;;;;;5104174;28;20029;-38
2023/04/27 02:35:01;;;;;;;10.73;5.30;;;6.00;99.90;;;;;;5107540;28;20057;-38
2023/04/27 02:37:26;;;;;;;9.00;4.53;;;6.00;99.90;;;;;;5107895;28;20031;-38
2023/04/27 02:39:52;;;;;;;9.98;5.13;;;6.00;99.90;;;;;;5107350;28;20042;-38
2023/04/27 02:42:18;;;;;;;18.83;5.35;;;6.00;99.90;;;;;;5088909;28;20069;-38
2023/04/27 02:44:43;;;;;;;7.95;4.80;;;5.90;99.90;;;;;;5107455;28;20091;-38
2023/04/27 02:47:09;;;;;;;10.90;5.20;;;5.90;99.90;;;;;;5088529;28;20288;-38
2023/04/27 02:49:35;;;;;;;9.85;5.40;;;5.90;99.90;;;;;;5106978;28;20019;-38
2023/04/27 02:52:00;;;;;;;12.82;5.43;;;5.90;99.90;;;;;;5106918;28;20076;-38
2023/04/27 02:54:26;;;;;;;8.77;5.10;;;5.90;99.90;;;;;;5107265;28;20070;-38
2023/04/27 02:56:51;;;;;;;9.05;5.20;;;5.90;99.90;;;;;;5105778;28;20061;-38
2023/04/27 02:59:17;;;;;;;11.35;5.38;;;5.80;99.90;;;;;;5106778;28;20438;-38
2023/04/27 03:01:42;;;;;;;12.27;5.85;;;5.80;99.90;;;;;;5109148;27;20035;-38
2023/04/27 03:04:08;;;;;;;13.60;5.88;;;5.80;99.90;;;;;;5108874;27;21140;-38
2023/04/27 03:06:33;;;;;;;12.38;5.47;;;5.80;99.90;;;;;;5107053;28;20023;-38
2023/04/27 03:08:59;;;;;;;9.13;5.05;;;5.80;99.90;;;;;;5107162;28;20020;-38
2023/04/27 03:11:25;;;;;;;11.40;4.72;;;5.80;99.90;;;;;;5106927;28;20335;-38
2023/04/27 03:13:50;;;;;;;11.68;6.10;;;5.70;99.90;;;;;;5107806;27;20351;-38
2023/04/27 03:16:16;;;;;;;11.90;6.00;;;5.70;99.90;;;;;;5088376;28;20080;-38
2023/04/27 03:18:41;;;;;;;14.18;5.47;;;5.70;99.90;;;;;;5106476;28;20023;-38
2023/04/27 03:21:11;;;;;;;10.82;5.22;;;5.70;99.90;;;;;;5106624;28;20031;-37
2023/04/27 03:23:37;;;;;;;15.50;6.05;;;5.60;99.90;;;;;;5104069;28;20031;-38
2023/04/27 03:26:10;;;;;;;8.48;5.35;;;5.70;99.90;;;;;;5106549;28;20015;-37
2023/04/27 03:28:36;;;;;;;12.50;6.18;;;5.60;99.90;;;;;;5103940;28;20111;-38
2023/04/27 03:31:06;;;;;;;10.90;6.43;;;5.60;99.90;;;;;;5107729;28;20026;-38
2023/04/27 03:33:31;;;;;;;14.57;6.40;;;5.50;99.90;;;;;;5089593;28;20023;-38
2023/04/27 03:35:58;;;;;;;11.55;5.85;;;5.60;99.90;;;;;;5092030;28;20511;-37
2023/04/27 03:38:24;;;;;;;13.32;6.03;;;5.50;99.90;;;;;;5110758;28;20108;-37
2023/04/27 03:40:50;;;;;;;18.42;7.32;;;5.50;99.90;;;;;;5109685;28;20145;-38
2023/04/27 03:43:17;;;;;;;10.30;6.80;;;5.50;99.90;;;;;;5110495;28;20019;-38
2023/04/27 03:45:42;;;;;;;11.30;6.10;;;5.40;99.90;;;;;;5110223;28;20243;-38
2023/04/27 03:48:08;;;;;;;9.73;6.05;;;5.30;99.90;;;;;;5109970;28;20032;-38
2023/04/27 03:50:33;;;;;;;13.77;6.65;;;5.20;99.90;;;;;;5110304;28;20030;-38
2023/04/27 03:52:59;;;;;;;9.93;5.50;;;5.20;99.90;;;;;;5091168;28;20042;-38
2023/04/27 03:55:24;;;;;;;12.30;6.18;;;5.10;99.90;;;;;;5110164;28;20080;-38
2023/04/27 03:57:50;;;;;;;13.82;6.15;;;5.20;99.90;;;;;;5110094;28;20469;-38
2023/04/27 04:00:17;;;;;;;12.57;6.57;;;5.10;99.90;;;;;;5091536;28;20713;-38
2023/04/27 04:02:43;;;;;;;12.57;6.18;;;5.00;99.90;;;;;;5109334;28;20102;-38
2023/04/27 04:05:09;;;;;;;13.13;6.65;;;5.00;99.90;;;;;;5109417;28;20034;-38
2023/04/27 04:07:35;;;;;;;14.15;6.43;;;4.90;99.90;;;;;;5110220;28;20030;-38
2023/04/27 04:10:01;;;;;;;11.88;7.55;;;4.90;99.90;;;;;;5109168;28;20111;-38
2023/04/27 04:12:27;;;;;;;16.25;7.38;;;4.90;99.90;;;;;;5109385;28;20164;-37
2023/04/27 04:14:52;;;;;;;13.13;6.85;;;4.90;99.90;;;;;;5109568;28;20028;-38
2023/04/27 04:17:18;;;;;;;12.85;6.32;;;4.90;99.90;;;;;;5110151;28;20441;-38
2023/04/27 04:19:43;;;;;;;11.20;6.50;;;4.80;99.90;;;;;;5109918;28;20130;-38
2023/04/27 04:22:09;;;;;;;15.73;6.80;;;4.90;99.90;;;;;;5110250;27;20052;-37
2023/04/27 04:24:35;;;;;;;11.30;6.82;;;4.90;99.90;;;;;;5091142;28;20032;-37
2023/04/27 04:27:01;;;;;;;13.18;5.95;;;4.80;99.90;;;;;;5109785;28;20044;-38
2023/04/27 04:29:27;;;;;;;18.20;7.72;;;4.80;99.90;;;;;;5109779;28;20024;-38
2023/04/27 04:31:54;;;;;;;15.73;8.02;;;4.80;99.90;;;;;;5109311;28;20023;-37
2023/04/27 04:34:20;;;;;;;13.70;7.40;;;4.80;99.90;;;;;;5109986;28;20096;-37
2023/04/27 04:36:46;;;;;;;15.27;7.15;;;4.90;99.90;;;;;;5109733;28;20110;-37
2023/04/27 04:39:12;;;;;;;13.25;6.88;;;4.80;99.90;;;;;;5109406;28;20771;-37
2023/04/27 04:41:37;;;;;;;14.93;6.72;;;4.80;99.90;;;;;;5110057;27;20526;-37
2023/04/27 04:44:04;;;;;;;17.55;7.35;;;4.80;99.90;;;;;;5091182;28;20015;-38
2023/04/27 04:46:29;;;;;;;22.50;8.52;;;4.80;99.90;;;;;;5090579;28;20073;-38
2023/04/27 04:48:55;;;;;;;14.65;8.20;;;4.70;99.90;;;;;;5088768;28;20020;-38
2023/04/27 04:51:21;;;;;;;25.90;7.53;;;4.70;99.90;;;;;;5110664;27;20126;-37
2023/04/27 04:53:46;;;;;;;15.10;7.97;;;4.70;99.90;;;;;;5112791;27;20415;-38
2023/04/27 04:56:13;;;;;;;15.23;7.13;;;4.70;99.90;;;;;;5101814;27;20028;-38
2023/04/27 04:58:39;;;;;;;11.20;6.65;;;4.70;99.90;;;;;;5119058;27;20031;-38
2023/04/27 05:01:05;;;;;;;16.90;8.20;;;4.70;99.90;;;;;;5124039;27;20038;-38
2023/04/27 05:03:31;;;;;;;24.10;7.88;;;4.60;99.90;;;;;;5113427;27;20035;-38
2023/04/27 05:05:56;;;;;;;15.45;7.85;;;4.70;99.90;;;;;;5125527;27;20024;-38
2023/04/27 05:08:22;;;;;;;14.45;8.02;;;4.70;99.90;;;;;;5118027;27;20076;-38
2023/04/27 05:10:51;;;;;;;15.85;7.13;;;4.70;99.90;;;;;;5118131;27;20035;-39
2023/04/27 05:13:17;;;;;;;15.25;7.35;;;4.70;99.90;;;;;;5125833;27;20027;-39
2023/04/27 05:15:42;;;;;;;14.30;7.45;;;4.70;99.90;;;;;;5112843;27;20115;-38
2023/04/27 05:18:08;;;;;;;18.00;8.50;;;4.70;99.90;;;;;;5123375;27;20036;-39
2023/04/27 05:20:34;;;;;;;15.63;7.65;;;4.80;99.90;;;;;;5119640;27;20030;-38
2023/04/27 05:23:00;;;;;;;17.75;8.88;;;4.80;99.90;;;;;;5115951;27;20040;-38
2023/04/27 05:25:28;;;;;;;19.05;9.02;;;4.70;99.90;;;;;;5126263;27;20154;-38
2023/04/27 05:27:54;;;;;;;19.83;8.93;;;4.70;99.90;;;;;;5120097;27;20023;-38
2023/04/27 05:30:20;;;;;;;17.05;9.70;;;4.70;99.90;;;;;;5101939;27;20031;-38
2023/04/27 05:32:45;;;;;;;21.35;9.40;;;4.70;99.90;;;;;;5101323;27;20031;-38
2023/04/27 05:35:10;;;;;;;21.67;9.52;;;4.70;99.90;;;;;;5114206;27;20028;-38
2023/04/27 05:37:36;;;;;;;25.13;8.63;;;4.80;99.90;;;;;;5126108;27;20030;-39
2023/04/27 05:40:04;;;;;;;20.23;10.25;;;4.80;99.90;;;;;;5114639;27;20149;-38
2023/04/27 05:42:30;;;;;;;23.88;10.15;;;4.80;99.90;;;;;;5121274;27;20024;-38
2023/04/27 05:44:56;;;;;;;17.85;9.90;;;4.80;99.90;;;;;;5101353;27;20365;-38
2023/04/27 05:47:21;;;;;;;20.30;9.63;;;4.80;99.90;;;;;;5108363;27;20028;-38
2023/04/27 05:49:53;;;;;;;18.13;8.55;;;4.80;99.90;;;;;;5107795;28;20019;-38
2023/04/27 05:52:20;;;;;;;22.55;10.07;;;4.90;99.90;;;;;;5107355;28;20063;-38
2023/04/27 05:54:49;;;;;;;20.70;8.70;;;4.90;99.90;;;;;;5107057;28;20035;-38
2023/04/27 05:57:15;;;;;;;18.45;9.20;;;5.00;99.90;;;;;;5108395;27;20040;-38
2023/04/27 05:59:41;;;;;;;16.17;9.27;;;5.00;99.90;;;;;;5107427;28;20066;-38
2023/04/27 06:02:08;;;;;;;25.85;11.00;;;5.00;99.90;;;;;;5107748;27;20114;-39
2023/04/27 06:04:35;;;;;;;19.17;9.90;;;5.00;99.90;;;;;;5108863;27;20557;-38
2023/04/27 06:07:02;;;;;;;16.75;8.70;;;5.10;99.90;;;;;;5107732;28;20058;-38
2023/04/27 06:09:29;;;;;;;17.88;9.32;;;5.20;99.90;;;;;;5107268;28;20081;-38
2023/04/27 06:11:57;;;;;;;21.08;9.32;;;5.30;99.90;;;;;;5107192;28;20534;-38
2023/04/27 06:14:23;;;;;;;20.67;8.43;;;5.30;99.90;;;;;;5108164;28;20027;-38
2023/04/27 06:16:48;;;;;;;14.07;8.73;;;5.40;99.90;;;;;;5089566;28;20085;-38
2023/04/27 06:19:14;;;;;;;25.38;10.57;;;5.40;99.90;;;;;;5107438;28;20039;-38
2023/04/27 06:21:39;;;;;;;18.50;8.13;;;5.50;99.90;;;;;;5107766;28;20030;-38
2023/04/27 06:24:05;;;;;;;17.45;8.93;;;5.50;99.90;;;;;;5107662;28;20032;-38
2023/04/27 06:26:31;;;;;;;17.30;8.32;;;5.60;99.90;;;;;;5089209;28;20121;-38
2023/04/27 06:28:56;;;;;;;17.67;7.47;;;5.60;99.90;;;;;;5107758;28;20118;-38
2023/04/27 06:31:22;;;;;;;16.60;7.53;;;5.60;99.90;;;;;;5114264;27;20115;-38
2023/04/27 06:33:47;;;;;;;17.20;7.25;;;5.70;99.90;;;;;;5107399;28;20412;-38
2023/04/27 06:36:13;;;;;;;14.20;6.68;;;5.80;99.90;;;;;;5107957;28;20023;-38
2023/04/27 06:38:39;;;;;;;16.13;7.72;;;5.90;99.90;;;;;;5107664;28;20024;-38
2023/04/27 06:41:04;;;;;;;19.98;8.15;;;5.90;99.90;;;;;;5107193;28;20104;-38
2023/04/27 06:43:30;;;;;;;21.70;7.95;;;5.90;99.90;;;;;;5107796;28;20481;-38
2023/04/27 06:45:56;;;;;;;17.40;7.28;;;6.00;99.90;;;;;;5107464;28;20139;-39
2023/04/27 06:48:21;;;;;;;15.73;7.90;;;6.00;99.90;;;;;;5107054;28;20102;-38
2023/04/27 06:50:47;;;;;;;16.23;8.15;;;6.00;99.90;;;;;;5106946;28;20089;-38
2023/04/27 06:53:12;;;;;;;16.63;9.80;;;6.00;99.90;;;;;;5107774;28;20297;-38
2023/04/27 06:55:38;;;;;;;15.80;6.15;;;6.10;99.90;;;;;;5110987;27;20028;-38
2023/04/27 06:58:04;;;;;;;15.88;5.95;;;6.20;99.90;;;;;;5107221;28;20085;-38
2023/04/27 07:00:30;;;;;;;15.77;7.18;;;6.40;99.90;;;;;;5088607;28;20085;-39
2023/04/27 07:02:56;;;;;;;15.20;6.07;;;6.50;99.90;;;;;;5107442;28;20031;-39
2023/04/27 07:05:21;;;;;;;15.13;5.93;;;6.60;99.90;;;;;;5108083;28;20426;-39
2023/04/27 07:07:47;;;;;;;13.05;4.75;;;6.80;99.90;;;;;;5096305;27;20106;-39
2023/04/27 07:10:13;;;;;;;16.98;6.13;;;6.70;99.90;;;;;;5102941;28;20042;-39
2023/04/27 07:12:39;;;;;;;12.45;6.03;;;6.80;99.90;;;;;;5105291;28;20073;-39
2023/04/27 07:15:06;;;;;;;9.05;5.00;;;7.00;99.90;;;;;;5105588;28;20103;-39
2023/04/27 07:17:32;;;;;;;10.27;4.63;;;7.10;99.90;;;;;;5106235;28;20438;-39
2023/04/27 07:19:58;;;;;;;7.55;4.13;;;7.20;99.90;;;;;;5106113;28;20067;-39
2023/04/27 07:22:23;;;;;;;11.50;4.63;;;7.30;99.90;;;;;;5106172;28;20019;-39
2023/04/27 07:24:49;;;;;;;9.20;4.10;;;7.20;99.90;;;;;;5106383;28;20039;-39
2023/04/27 07:27:15;;;;;;;7.68;3.78;;;7.30;99.90;;;;;;5114970;27;20023;-39
2023/04/27 07:29:41;;;;;;;10.13;4.10;;;7.50;99.90;;;;;;5127436;27;20041;-39
2023/04/27 07:32:07;;;;;;;14.43;3.97;;;7.60;99.90;;;;;;5116650;27;20253;-39
2023/04/27 07:34:33;;;;;;;13.32;4.22;;;7.70;99.90;;;;;;5107294;28;20034;-39
2023/04/27 07:37:00;;;;;;;8.60;3.08;;;7.80;99.90;;;;;;5107825;28;20372;-39
2023/04/27 07:39:26;;;;;;;8.07;2.78;;;7.90;99.90;;;;;;5107158;28;20043;-39
2023/04/27 07:41:51;;;;;;;6.68;3.58;;;8.20;99.90;;;;;;5106885;28;20054;-39
2023/04/27 07:44:18;;;;;;;9.40;2.25;;;8.30;99.90;;;;;;5106464;28;20361;-39
2023/04/27 07:46:46;;;;;;;5.65;2.70;;;8.40;99.90;;;;;;5106640;28;20016;-39
2023/04/27 07:49:12;;;;;;;5.80;2.58;;;8.50;99.90;;;;;;5106212;28;20027;-39
2023/04/27 07:51:38;;;;;;;8.07;2.92;;;8.80;99.90;;;;;;5087810;28;20030;-39
2023/04/27 07:54:05;;;;;;;5.18;2.63;;;9.00;99.90;;;;;;5106779;28;20032;-39
2023/04/27 07:56:31;;;;;;;13.57;3.50;;;9.10;99.90;;;;;;5107372;28;20515;-39
2023/04/27 07:58:56;;;;;;;12.38;2.80;;;9.50;99.90;;;;;;5106805;28;20058;-40
2023/04/27 08:01:22;;;;;;;31.90;17.65;;;9.50;98.50;;;;;;5108447;28;20020;-39
2023/04/27 08:03:47;;;;;;;21.00;10.35;;;9.60;98.80;;;;;;5108654;28;20031;-39
2023/04/27 08:06:13;;;;;;;12.32;6.35;;;9.70;98.20;;;;;;5114147;28;20032;-40
2023/04/27 08:08:38;;;;;;;8.98;2.85;;;10.10;97.70;;;;;;5101181;28;20430;-40
2023/04/27 08:11:04;;;;;;;10.73;2.70;;;10.90;97.60;;;;;;5109323;28;20052;-40
2023/04/27 08:13:29;;;;;;;5.53;2.78;;;11.90;94.70;;;;;;5083550;28;20078;-41
2023/04/27 08:15:57;;;;;;;4.95;1.80;;;13.00;91.40;;;;;;5083464;28;20096;-41
2023/04/27 08:18:24;;;;;;;9.27;2.47;;;14.10;86.30;;;;;;5084389;28;20399;-41
2023/04/27 08:20:49;;;;;;;5.85;1.80;;;15.40;77.30;;;;;;5087057;28;20032;-41
2023/04/27 08:23:15;;;;;;;8.98;2.08;;;15.80;74.20;;;;;;5089402;28;20043;-41
2023/04/27 08:25:40;;;;;;;4.65;2.15;;;16.30;72.60;;;;;;5089788;28;20016;-40
2023/04/27 08:28:06;;;;;;;2.85;1.75;;;17.30;69.20;;;;;;5107665;27;20028;-41
2023/04/27 08:30:31;;;;;;;6.85;2.45;;;17.50;63.00;;;;;;5111300;27;20107;-41
2023/04/27 08:32:57;;;;;;;3.83;1.50;;;16.60;65.90;;;;;;5113152;27;20027;-41
2023/04/27 08:35:22;;;;;;;6.93;2.08;;;16.30;67.60;;;;;;5089941;28;20377;-41
2023/04/27 08:37:48;;;;;;;10.40;1.88;;;15.80;68.20;;;;;;5113929;27;20034;-41
2023/04/27 08:40:14;;;;;;;6.10;1.70;;;16.30;66.90;;;;;;5111090;27;20031;-42
2023/04/27 08:42:52;;;;;;;5.43;2.10;;;17.20;66.60;;;;;;5110149;28;20027;-41
2023/04/27 08:45:19;;;;;;;6.88;2.25;;;18.80;66.20;;;;;;5110299;28;20381;-41
2023/04/27 08:47:45;;;;;;;3.38;1.92;;;20.60;55.20;;;;;;5110155;28;20110;-42
2023/04/27 08:50:11;;;;;;;6.22;1.75;;;17.50;60.10;;;;;;5109935;28;20024;-41
2023/04/27 08:52:37;;;;;;;4.75;1.92;;;16.90;61.60;;;;;;5114521;27;20023;-40
2023/04/27 08:55:03;;;;;;;5.72;1.90;;;15.70;64.80;;;;;;5110299;27;20381;-40
2023/04/27 08:57:29;;;;;;;3.88;1.90;;;15.00;65.50;;;;;;5094373;27;20537;-40
2023/04/27 08:59:59;;;;;;;9.90;2.00;;;14.60;68.10;;;;;;5121463;27;20023;-40
2023/04/27 09:02:28;;;;;;;4.60;1.40;;;14.00;67.60;;;;;;5128883;27;20046;-40
2023/04/27 09:04:54;;;;;;;4.78;1.77;;;13.50;69.30;;;;;;5113734;27;20023;-40
2023/04/27 09:07:20;;;;;;;7.10;2.40;;;12.90;70.40;;;;;;5113923;27;20130;-40
2023/04/27 09:09:47;;;;;;;3.92;1.80;;;13.70;71.90;;;;;;5111862;27;20035;-41
2023/04/27 09:12:30;;;;;;;5.82;1.70;;;15.60;69.50;;;;;;5109135;28;20027;-41
2023/04/27 09:14:57;;;;;;;4.22;1.50;;;18.20;61.00;;;;;;5109278;28;20069;-41
2023/04/27 09:17:27;;;;;;;3.25;1.33;;;18.80;55.20;;;;;;5109178;28;20023;-42
2023/04/27 09:20:11;;;;;;;4.68;1.90;;;21.00;57.60;;;;;;5108956;28;20608;-41
2023/04/27 09:22:50;;;;;;;6.13;1.88;;;22.10;53.10;;;;;;5108587;28;20031;-41
2023/04/27 09:25:22;;;;;;;7.90;1.60;;;22.60;50.50;;;;;;5109044;28;20047;-41
2023/04/27 09:27:48;;;;;;;6.63;2.05;;;23.40;50.00;;;;;;5107360;28;20516;-42
2023/04/27 09:30:14;;;;;;;5.90;1.85;;;23.70;48.90;;;;;;5108636;28;20106;-41
2023/04/27 09:32:57;;;;;;;6.60;1.70;;;23.60;46.30;;;;;;5108105;27;20269;-41
2023/04/27 09:35:28;;;;;;;4.38;1.77;;;22.70;47.70;;;;;;5089675;28;20023;-41
2023/04/27 09:37:54;;;;;;;8.63;2.22;;;21.80;49.20;;;;;;5116020;27;20556;-41
2023/04/27 09:40:26;;;;;;;6.65;1.70;;;20.00;52.00;;;;;;5110683;27;20034;-41
2023/04/27 09:42:56;;;;;;;4.10;1.60;;;18.90;50.80;;;;;;5108100;28;20495;-40
2023/04/27 09:45:23;;;;;;;3.75;1.95;;;17.60;53.60;;;;;;5109205;28;20072;-40
2023/04/27 09:47:48;;;;;;;4.60;2.08;;;16.80;56.60;;;;;;5108659;28;20688;-41
2023/04/27 09:50:14;;;;;;;3.53;1.83;;;16.90;56.90;;;;;;5109155;28;20031;-40
2023/04/27 09:52:40;;;;;;;3.42;1.52;;;16.80;55.90;;;;;;5108496;28;20242;-41
2023/04/27 09:55:14;;;;;;;5.22;1.67;;;16.70;55.80;;;;;;5108881;28;20066;-40
2023/04/27 09:57:44;;;;;;;5.88;1.90;;;15.90;55.70;;;;;;5106393;28;20042;-41
2023/04/27 10:00:18;;;;;;;5.47;2.20;;;14.90;59.50;;;;;;5108604;28;20111;-39
2023/04/27 10:03:15;;;;;;;6.07;1.92;;;14.50;60.10;;;;;;5107743;27;20086;-40
2023/04/27 10:05:41;;;;;;;2.92;1.75;;;14.00;61.40;;;;;;5085230;27;20166;-40
2023/04/27 10:08:08;;;;;;;6.57;2.22;;;13.60;63.00;;;;;;5097745;27;20395;-40
2023/04/27 10:10:51;;;;;;;6.70;1.92;;;13.10;63.90;;;;;;5109099;27;20106;-40
2023/04/27 10:13:25;;;;;;;3.30;1.70;;;12.40;63.60;;;;;;5107826;28;20026;-40
2023/04/27 10:15:52;;;;;;;4.90;2.03;;;12.20;65.70;;;;;;5108233;28;20316;-40
2023/04/27 10:18:26;;;;;;;4.28;1.95;;;12.70;66.90;;;;;;5104677;28;20036;-41
2023/04/27 10:20:52;;;;;;;4.68;2.05;;;14.40;66.60;;;;;;5108494;28;20055;-41
2023/04/27 10:23:27;;;;;;;6.13;2.42;;;16.50;59.10;;;;;;5108362;28;20055;-41
2023/04/27 10:25:54;;;;;;;3.20;1.73;;;18.40;58.30;;;;;;5089660;28;20754;-42
2023/04/27 10:28:20;;;;;;;3.13;1.42;;;19.50;52.90;;;;;;5089537;28;20454;-42
2023/04/27 10:30:47;;;;;;;3.50;1.80;;;20.80;51.40;;;;;;5108298;28;20081;-42
2023/04/27 10:33:22;;;;;;;1.77;1.50;;;21.50;48.90;;;;;;5107528;28;20032;-41
2023/04/27 10:35:57;;;;;;;3.30;1.55;;;22.60;47.00;;;;;;5109765;27;20020;-42
2023/04/27 10:38:28;;;;;;;3.90;1.60;;;23.80;47.40;;;;;;5110191;27;20387;-41
2023/04/27 10:40:56;;;;;;;9.55;2.38;;;24.90;43.20;;;;;;5107733;28;20019;-42
2023/04/27 10:43:26;;;;;;;9.25;2.20;;;24.30;43.20;;;;;;5088890;28;20023;-41
2023/04/27 10:45:52;;;;;;;2.15;1.60;;;23.10;45.20;;;;;;5107916;28;20259;-43
2023/04/27 10:48:18;;;;;;;5.10;1.77;;;21.80;47.00;;;;;;5107380;28;20104;-42
2023/04/27 10:50:45;;;;;;;5.65;1.70;;;21.60;48.60;;;;;;5107352;28;20106;-43
2023/04/27 10:53:11;;;;;;;4.35;1.85;;;21.60;45.30;;;;;;5088479;28;20073;-42
2023/04/27 10:55:37;;;;;;;1.88;1.48;;;23.20;45.10;;;;;;5107048;28;20440;-45
2023/04/27 10:58:03;;;;;;;2.25;1.50;;;23.30;45.30;;;;;;5107480;28;20019;-42
2023/04/27 11:00:32;;;;;;;5.10;1.85;;;21.70;44.60;;;;;;5107114;28;20081;-42
2023/04/27 11:03:22;;;;;;;2.50;1.45;;;20.30;45.60;;;;;;5106594;28;20028;-42
2023/04/27 11:06:04;;;;;;;4.10;1.70;;;19.10;50.70;;;;;;5107812;27;20031;-41
2023/04/27 11:08:31;;;;;;;5.13;1.88;;;18.40;52.40;;;;;;5114707;27;20381;-42
2023/04/27 11:10:57;;;;;;;4.30;1.75;;;17.70;52.40;;;;;;5106847;28;20023;-40
2023/04/27 11:13:24;;;;;;;4.65;1.83;;;17.30;51.90;;;;;;5107577;28;20034;-40
2023/04/27 11:15:54;;;;;;;3.58;1.80;;;17.00;52.10;;;;;;5106915;28;20499;-41
2023/04/27 11:18:21;;;;;;;5.50;1.95;;;16.90;52.80;;;;;;5115168;27;20384;-40
2023/04/27 11:20:49;;;;;;;2.55;1.40;;;17.70;54.10;;;;;;5106622;28;20420;-41
2023/04/27 11:23:35;;;;;;;3.13;1.80;;;19.30;49.80;;;;;;5106370;28;20053;-42
2023/04/27 11:26:25;;;;;;;3.20;1.60;;;20.40;49.80;;;;;;5104521;28;20141;-41
2023/04/27 11:29:01;;;;;;;2.97;1.95;;;20.00;49.40;;;;;;5105765;28;20036;-41
2023/04/27 11:31:36;;;;;;;3.95;1.95;;;19.60;46.70;;;;;;5104760;27;20020;-41
2023/04/27 11:34:02;;;;;;;3.65;1.70;;;19.90;48.30;;;;;;5106783;28;20023;-41
2023/04/27 11:36:28;;;;;;;6.00;1.65;;;21.10;49.60;;;;;;5109197;28;20817;-41
2023/04/27 11:38:57;;;;;;;1.77;1.50;;;20.90;45.50;;;;;;5106362;28;20106;-42
2023/04/27 11:41:32;;;;;;;3.70;2.00;;;19.90;47.20;;;;;;5104198;28;20050;-41
2023/04/27 11:44:04;;;;;;;4.80;2.10;;;19.20;48.60;;;;;;5106735;28;20107;-41
2023/04/27 11:46:30;;;;;;;8.77;2.53;;;18.20;51.80;;;;;;5103780;28;20039;-40
2023/04/27 11:49:02;;;;;;;3.30;2.00;;;17.30;51.50;;;;;;5105665;28;20419;-42
2023/04/27 11:51:29;;;;;;;3.67;1.77;;;16.60;53.30;;;;;;5103222;28;20019;-41
2023/04/27 11:53:55;;;;;;;4.13;1.73;;;16.30;55.50;;;;;;5106199;27;20413;-41
2023/04/27 11:56:21;;;;;;;3.03;1.73;;;16.00;55.60;;;;;;5091213;28;20019;-40
2023/04/27 11:58:46;;;;;;;28.77;18.60;;;15.50;57.20;;;;;;5109233;28;20379;-40
2023/04/27 12:01:12;;;;;;;5.53;1.88;;;15.20;54.60;;;;;;5110366;28;20055;-40
2023/04/27 12:03:37;;;;;;;2.97;1.63;;;14.80;54.90;;;;;;5111010;28;20026;-40
2023/04/27 12:06:03;;;;;;;2.72;1.60;;;14.90;55.20;;;;;;5111616;27;20555;-41
2023/04/27 12:08:28;;;;;;;5.45;1.63;;;15.40;57.00;;;;;;5110878;27;20016;-41
2023/04/27 12:10:54;;;;;;;3.97;1.80;;;15.50;55.20;;;;;;5109052;28;20020;-41
2023/04/27 12:13:20;;;;;;;6.13;1.80;;;16.10;58.60;;;;;;5086652;28;20484;-41
2023/04/27 12:15:45;;;;;;;3.30;1.55;;;17.10;53.80;;;;;;5110368;28;20028;-41
2023/04/27 12:18:11;;;;;;;2.80;1.50;;;17.40;54.50;;;;;;5110237;28;20034;-41
2023/04/27 12:20:37;;;;;;;2.17;1.73;;;17.40;55.60;;;;;;5110169;28;20031;-40
2023/04/27 12:23:02;;;;;;;4.20;1.73;;;16.90;53.90;;;;;;5110153;28;20032;-41
2023/04/27 12:25:29;;;;;;;2.53;1.45;;;16.50;51.60;;;;;;5111010;27;20408;-41
2023/04/27 12:27:54;;;;;;;2.58;1.48;;;16.00;52.80;;;;;;5091507;28;20020;-40
2023/04/27 12:30:22;;;;;;;2.53;1.48;;;15.80;55.70;;;;;;5110984;27;20213;-40
2023/04/27 12:32:48;;;;;;;3.42;1.58;;;15.50;54.30;;;;;;5091151;28;20047;-41
2023/04/27 12:35:13;;;;;;;5.65;1.85;;;15.20;55.60;;;;;;5110082;28;20055;-40
2023/04/27 12:37:39;;;;;;;4.75;2.10;;;15.00;57.80;;;;;;5111586;27;20250;-40
2023/04/27 12:40:06;;;;;;;6.18;2.35;;;14.60;58.70;;;;;;5110100;27;20490;-40
2023/04/27 12:42:32;;;;;;;5.18;1.60;;;14.40;59.90;;;;;;5109505;28;20427;-41
2023/04/27 12:44:57;;;;;;;3.42;1.73;;;14.30;62.30;;;;;;5111752;27;20047;-40
2023/04/27 12:47:23;;;;;;;3.40;1.98;;;14.00;60.00;;;;;;5109641;28;20104;-41
2023/04/27 12:49:50;;;;;;;1.73;1.50;;;13.90;60.00;;;;;;5109271;28;20524;-40
2023/04/27 12:52:16;;;;;;;3.42;1.90;;;14.00;58.40;;;;;;5109765;28;20031;-40